Time;durP1;ratioP1;P1;durP2;ratioP2;P2;SDS_P1;SDS_P2;PMS_P1;PMS_P2;Temp;Humidity;BMP_temperature;BMP_pressure;BME280_temperature;BME280_humidity;BME280_pressure;Samples;Min_cycle;Max_cycle;Signal;HPM_P1;HPM_P2
2023/02/25 00:00:45;;;;;;;;;;;;;;;4.49;86.79;97171.81;7389095;19;19929;-71
2023/02/25 00:03:14;;;;;;;;;;;;;;;4.32;86.01;97169.00;7390314;19;21636;-71
2023/02/25 00:05:41;;;;;;;;;;;;;;;4.34;85.86;97167.03;7390920;19;19941;-71
2023/02/25 00:08:07;;;;;;;;;;;;;;;4.32;85.96;97161.16;7390462;19;20015;-73
2023/02/25 00:10:34;;;;;;;;;;;;;;;4.23;85.60;97161.19;7386456;19;20345;-73
2023/02/25 00:13:02;;;;;;;;;;;;;;;4.27;84.47;97166.00;7389056;19;19919;-73
2023/02/25 00:15:43;;;;;;;;;;;;;;;4.40;84.78;97165.66;7390101;19;19922;-73
2023/02/25 00:18:09;;;;;;;;;;;;;;;4.35;84.72;97160.84;7392096;19;19981;-73
2023/02/25 00:20:38;;;;;;;;;;;;;;;4.32;84.65;97168.19;7390419;19;19922;-73
2023/02/25 00:23:04;;;;;;;;;;;;;;;4.26;84.88;97164.34;7386457;19;20274;-73
2023/02/25 00:25:31;;;;;;;;;;;;;;;4.35;84.11;97165.28;7390606;19;19919;-73
2023/02/25 00:27:58;;;;;;;;;;;;;;;4.34;84.27;97169.66;7388736;19;19922;-73
2023/02/25 00:30:24;;;;;;;;;;;;;;;4.26;83.08;97164.34;7384790;19;20315;-73
2023/02/25 00:32:51;;;;;;;;;;;;;;;4.24;82.66;97170.69;7389142;19;19955;-73
2023/02/25 00:35:18;;;;;;;;;;;;;;;4.30;82.90;97155.22;7388014;19;19915;-73
2023/02/25 00:37:44;;;;;;;;;;;;;;;4.19;82.19;97165.91;7387024;19;20264;-73
2023/02/25 00:40:14;;;;;;;;;;;;;;;4.23;82.31;97158.56;7386456;19;19922;-73
2023/02/25 00:42:40;;;;;;;;;;;;;;;4.18;81.15;97153.75;7383699;19;19922;-73
2023/02/25 00:45:08;;;;;;;;;;;;;;;4.23;82.09;97162.00;7391245;19;20545;-73
2023/02/25 00:47:34;;;;;;;;;;;;;;;4.18;82.16;97164.25;7397092;19;19918;-73
2023/02/25 00:50:02;;;;;;;;;;;;;;;4.28;82.31;97165.00;7391280;19;19958;-73
2023/02/25 00:52:29;;;;;;;;;;;;;;;4.13;81.67;97172.53;7389298;19;20255;-73
2023/02/25 00:54:55;;;;;;;;;;;;;;;4.15;81.63;97165.34;7393698;19;19910;-73
2023/02/25 00:57:22;;;;;;;;;;;;;;;4.23;82.46;97172.47;7390051;19;19923;-73
2023/02/25 00:59:49;;;;;;;;;;;;;;;4.15;82.25;97165.34;7394482;19;19922;-73
2023/02/25 01:02:16;;;;;;;;;;;;;;;4.20;82.26;97170.16;7393492;19;20007;-73
2023/02/25 01:04:42;;;;;;;;;;;;;;;4.23;82.63;97169.88;7392737;19;19922;-73
2023/02/25 01:07:10;;;;;;;;;;;;;;;4.22;82.21;97164.78;7396763;19;19915;-73
2023/02/25 01:09:36;;;;;;;;;;;;;;;4.21;82.83;97168.34;7397686;19;20392;-73
2023/02/25 01:12:03;;;;;;;;;;;;;;;4.15;81.66;97170.59;7395649;19;20346;-74
2023/02/25 01:14:30;;;;;;;;;;;;;;;4.14;81.80;97183.84;7395462;19;20270;-73
2023/02/25 01:17:00;;;;;;;;;;;;;;;4.14;81.85;97181.22;7393757;19;19923;-74
2023/02/25 01:19:27;;;;;;;;;;;;;;;4.18;81.82;97191.22;7393833;19;19950;-73
2023/02/25 01:21:54;;;;;;;;;;;;;;;4.17;81.04;97191.41;7388828;19;19926;-73
2023/02/25 01:24:22;;;;;;;;;;;;;;;4.24;81.59;97187.25;7393424;19;19923;-73
2023/02/25 01:26:50;;;;;;;;;;;;;;;4.15;81.49;97183.69;7387420;19;19930;-73
2023/02/25 01:29:18;;;;;;;;;;;;;;;4.19;80.89;97184.22;7390924;19;19925;-73
2023/02/25 01:31:45;;;;;;;;;;;;;;;4.14;80.81;97196.94;7391637;19;19923;-73
2023/02/25 01:34:13;;;;;;;;;;;;;;;4.09;79.88;97191.28;7390335;19;19922;-73
2023/02/25 01:36:40;;;;;;;;;;;;;;;4.10;80.07;97195.56;7395193;19;19994;-73
2023/02/25 01:39:06;;;;;;;;;;;;;;;4.09;80.33;97199.97;7393034;19;19914;-74
2023/02/25 01:41:35;;;;;;;;;;;;;;;4.02;79.34;97201.50;7390451;19;19919;-74
2023/02/25 01:44:13;;;;;;;;;;;;;;;4.03;80.43;97216.25;7386900;19;20217;-73
2023/02/25 01:46:40;;;;;;;;;;;;;;;3.97;79.65;97220.25;7393464;19;20250;-73
2023/02/25 01:49:12;;;;;;;;;;;;;;;3.96;79.74;97223.84;7393876;19;19918;-73
2023/02/25 01:51:38;;;;;;;;;;;;;;;4.05;80.26;97213.47;7394021;19;20426;-73
2023/02/25 01:54:06;;;;;;;;;;;;;;;4.05;79.68;97221.31;7388782;19;19925;-73
2023/02/25 01:56:33;;;;;;;;;;;;;;;4.05;80.44;97218.72;7394303;19;19930;-73
2023/02/25 01:59:00;;;;;;;;;;;;;;;4.01;79.78;97222.59;7392869;19;20258;-73
2023/02/25 02:01:27;;;;;;;;;;;;;;;4.14;79.45;97213.44;7394707;19;20258;-73
2023/02/25 02:03:54;;;;;;;;;;;;;;;4.13;79.89;97205.72;7389324;19;19927;-73
2023/02/25 02:06:28;;;;;;;;;;;;;;;4.01;79.53;97201.66;7393203;19;19926;-73
2023/02/25 02:08:54;;;;;;;;;;;;;;;4.12;79.87;97198.84;7391714;19;19918;-73
2023/02/25 02:11:21;;;;;;;;;;;;;;;4.14;80.48;97197.75;7388529;19;19922;-73
2023/02/25 02:13:49;;;;;;;;;;;;;;;4.16;80.04;97190.56;7385259;19;19944;-73
2023/02/25 02:16:33;;;;;;;;;;;;;;;4.15;80.39;97186.28;7388669;19;20281;-74
2023/02/25 02:19:05;;;;;;;;;;;;;;;4.01;79.67;97206.91;7390442;19;19914;-74
2023/02/25 02:21:43;;;;;;;;;;;;;;;3.96;79.32;97205.53;7392754;19;19922;-74
2023/02/25 02:24:15;;;;;;;;;;;;;;;3.97;78.85;97209.78;7388457;19;19956;-73
2023/02/25 02:26:44;;;;;;;;;;;;;;;3.96;78.41;97215.16;7389585;19;19923;-73
2023/02/25 02:29:18;;;;;;;;;;;;;;;4.12;78.32;97209.31;7394434;19;20222;-73
2023/02/25 02:32:04;;;;;;;;;;;;;;;4.07;78.50;97206.31;7389888;19;19919;-74
2023/02/25 02:34:35;;;;;;;;;;;;;;;4.05;77.60;97208.25;7411180;19;19950;-74
2023/02/25 02:37:20;;;;;;;;;;;;;;;4.00;78.40;97207.84;7406153;19;19925;-74
2023/02/25 02:40:04;;;;;;;;;;;;;;;4.06;78.72;97221.19;7403386;19;19933;-74
2023/02/25 02:42:40;;;;;;;;;;;;;;;3.94;76.94;97225.75;7402613;19;19939;-74
2023/02/25 02:45:25;;;;;;;;;;;;;;;4.06;77.41;97239.50;7386981;19;20043;-74
2023/02/25 02:47:59;;;;;;;;;;;;;;;3.99;76.93;97245.47;7390586;19;19933;-74
2023/02/25 02:50:29;;;;;;;;;;;;;;;4.12;77.19;97235.50;7389842;19;20412;-74
2023/02/25 02:52:57;;;;;;;;;;;;;;;4.10;77.81;97238.25;7386422;19;20327;-74
2023/02/25 02:55:26;;;;;;;;;;;;;;;4.17;77.90;97239.34;7392671;19;19990;-74
2023/02/25 02:57:54;;;;;;;;;;;;;;;4.09;77.14;97238.41;7388210;19;19927;-74
2023/02/25 03:00:25;;;;;;;;;;;;;;;4.13;77.41;97231.91;7391001;19;19922;-74
2023/02/25 03:02:55;;;;;;;;;;;;;;;4.07;78.31;97235.09;7391786;19;19926;-74
2023/02/25 03:05:25;;;;;;;;;;;;;;;4.07;77.76;97237.72;7391611;19;19930;-74
2023/02/25 03:07:59;;;;;;;;;;;;;;;4.13;78.33;97245.00;7390377;19;20307;-73
2023/02/25 03:10:25;;;;;;;;;;;;;;;4.06;78.46;97242.13;7390899;19;19923;-74
2023/02/25 03:12:54;;;;;;;;;;;;;;;3.96;78.00;97251.81;7390630;19;19938;-73
2023/02/25 03:15:21;;;;;;;;;;;;;;;4.08;77.89;97249.81;7390688;19;20362;-73
2023/02/25 03:17:49;;;;;;;;;;;;;;;4.11;78.54;97253.00;7391615;19;19918;-74
2023/02/25 03:20:24;;;;;;;;;;;;;;;4.05;78.07;97248.31;7390335;19;20009;-73
2023/02/25 03:22:51;;;;;;;;;;;;;;;4.10;78.47;97250.50;7386291;19;19922;-73
2023/02/25 03:25:28;;;;;;;;;;;;;;;4.10;78.48;97259.19;7386730;19;19926;-74
2023/02/25 03:27:55;;;;;;;;;;;;;;;4.06;78.08;97251.78;7387714;19;19929;-74
2023/02/25 03:30:28;;;;;;;;;;;;;;;4.10;78.36;97253.13;7388161;19;19989;-74
2023/02/25 03:32:58;;;;;;;;;;;;;;;3.95;78.57;97250.97;7388697;19;19927;-74
2023/02/25 03:35:25;;;;;;;;;;;;;;;4.04;78.66;97253.72;7389091;19;19923;-74
2023/02/25 03:37:53;;;;;;;;;;;;;;;3.96;78.24;97254.41;7388963;19;19933;-74
2023/02/25 03:40:20;;;;;;;;;;;;;;;3.83;78.71;97259.13;7388112;19;20472;-74
2023/02/25 03:42:57;;;;;;;;;;;;;;;3.86;79.17;97254.44;7388724;19;19990;-74
2023/02/25 03:45:25;;;;;;;;;;;;;;;3.91;78.99;97262.69;7385981;19;19918;-73
2023/02/25 03:47:52;;;;;;;;;;;;;;;3.80;78.21;97255.00;7380249;19;19945;-73
2023/02/25 03:50:23;;;;;;;;;;;;;;;3.72;78.67;97257.50;7380412;19;19922;-74
2023/02/25 03:52:54;;;;;;;;;;;;;;;3.80;79.14;97262.84;7379415;19;19985;-74
2023/02/25 03:55:41;;;;;;;;;;;;;;;3.82;79.48;97263.53;7389379;19;20329;-74
2023/02/25 03:58:08;;;;;;;;;;;;;;;3.58;78.96;97257.91;7386273;19;19918;-74
2023/02/25 04:00:35;;;;;;;;;;;;;;;3.58;79.23;97263.16;7385702;19;19922;-74
2023/02/25 04:03:02;;;;;;;;;;;;;;;3.49;79.69;97270.84;7383040;19;19925;-74
2023/02/25 04:05:28;;;;;;;;;;;;;;;3.34;79.69;97264.38;7388558;19;19923;-74
2023/02/25 04:07:56;;;;;;;;;;;;;;;3.34;79.66;97268.78;7385603;19;20532;-74
2023/02/25 04:10:24;;;;;;;;;;;;;;;3.28;79.04;97278.84;7384106;19;20331;-74
2023/02/25 04:12:51;;;;;;;;;;;;;;;3.14;78.66;97278.44;7385440;19;19930;-73
2023/02/25 04:15:17;;;;;;;;;;;;;;;3.18;77.98;97278.00;7389160;19;19923;-73
2023/02/25 04:17:45;;;;;;;;;;;;;;;3.17;76.95;97291.22;7389641;19;19930;-74
2023/02/25 04:20:13;;;;;;;;;;;;;;;3.22;77.91;97295.06;7390216;19;20078;-74
2023/02/25 04:22:40;;;;;;;;;;;;;;;3.20;76.20;97291.75;7385899;19;19918;-74
2023/02/25 04:25:07;;;;;;;;;;;;;;;3.21;77.37;97287.34;7382583;19;19914;-74
2023/02/25 04:27:33;;;;;;;;;;;;;;;3.22;76.27;97284.63;7389645;19;20342;-74
2023/02/25 04:30:00;;;;;;;;;;;;;;;3.16;77.04;97284.31;7385185;19;19958;-74
2023/02/25 04:32:26;;;;;;;;;;;;;;;3.07;77.09;97293.81;7387853;19;19982;-73
2023/02/25 04:34:53;;;;;;;;;;;;;;;2.98;76.67;97286.81;7386557;19;19927;-74
2023/02/25 04:37:20;;;;;;;;;;;;;;;3.17;76.60;97288.63;7387739;19;19918;-74
2023/02/25 04:39:46;;;;;;;;;;;;;;;3.12;75.84;97282.97;7387713;19;19929;-73
2023/02/25 04:42:13;;;;;;;;;;;;;;;3.16;75.83;97286.94;7386997;19;19933;-74
2023/02/25 04:44:40;;;;;;;;;;;;;;;3.23;76.50;97293.28;7388910;19;19926;-74
2023/02/25 04:47:07;;;;;;;;;;;;;;;3.14;76.01;97297.53;7387661;19;19914;-74
2023/02/25 04:49:43;;;;;;;;;;;;;;;3.17;75.61;97297.28;7389550;19;19923;-74
2023/02/25 04:52:11;;;;;;;;;;;;;;;3.17;75.70;97306.91;7382504;19;19941;-73
2023/02/25 04:54:38;;;;;;;;;;;;;;;3.10;76.42;97300.56;7389920;19;19944;-74
2023/02/25 04:57:05;;;;;;;;;;;;;;;3.04;75.20;97302.75;7389442;19;19927;-74
2023/02/25 04:59:31;;;;;;;;;;;;;;;2.97;75.21;97301.63;7388933;19;19926;-74
2023/02/25 05:01:59;;;;;;;;;;;;;;;3.11;74.85;97304.81;7389058;19;20339;-74
2023/02/25 05:04:25;;;;;;;;;;;;;;;3.08;74.77;97308.53;7390748;19;20347;-74
2023/02/25 05:06:52;;;;;;;;;;;;;;;3.16;74.66;97310.47;7389651;19;19919;-73
2023/02/25 05:09:20;;;;;;;;;;;;;;;3.20;73.92;97307.44;7388153;19;19926;-74
2023/02/25 05:14:22;;;;;;;;;;;;;;;3.24;73.14;97305.41;7384188;19;19923;-73
2023/02/25 05:16:48;;;;;;;;;;;;;;;3.29;73.58;97298.81;7387747;19;20354;-74
2023/02/25 05:19:16;;;;;;;;;;;;;;;3.36;73.78;97304.31;7385513;19;19922;-73
2023/02/25 05:21:43;;;;;;;;;;;;;;;3.29;72.85;97306.66;7389663;19;19922;-74
2023/02/25 05:24:11;;;;;;;;;;;;;;;3.36;73.53;97301.69;7383923;19;19937;-74
2023/02/25 05:26:37;;;;;;;;;;;;;;;3.39;73.02;97301.41;7381794;19;20288;-74
2023/02/25 05:29:04;;;;;;;;;;;;;;;3.36;72.33;97313.94;7386526;19;19923;-74
2023/02/25 05:31:31;;;;;;;;;;;;;;;3.42;73.11;97308.16;7393808;19;19948;-74
2023/02/25 05:33:58;;;;;;;;;;;;;;;3.35;73.64;97309.69;7388743;19;20358;-74
2023/02/25 05:36:25;;;;;;;;;;;;;;;3.44;73.95;97304.44;7394253;19;20339;-74
2023/02/25 05:38:54;;;;;;;;;;;;;;;3.25;73.55;97307.88;7394806;19;19923;-73
2023/02/25 05:41:21;;;;;;;;;;;;;;;3.17;73.87;97294.66;7394988;19;19934;-73
2023/02/25 05:43:47;;;;;;;;;;;;;;;3.31;73.01;97296.03;7388463;19;19978;-74
2023/02/25 05:46:14;;;;;;;;;;;;;;;3.35;73.89;97300.03;7389370;19;19918;-74
2023/02/25 05:48:41;;;;;;;;;;;;;;;3.34;73.35;97310.63;7394916;19;19922;-74
2023/02/25 05:51:12;;;;;;;;;;;;;;;3.19;72.70;97308.44;7389363;19;19926;-74
2023/02/25 05:53:39;;;;;;;;;;;;;;;3.29;72.51;97311.03;7391113;19;19926;-74
2023/02/25 05:56:07;;;;;;;;;;;;;;;3.17;71.70;97305.13;7393126;19;19997;-74
2023/02/25 05:58:34;;;;;;;;;;;;;;;3.23;72.34;97306.34;7395508;19;19919;-74
2023/02/25 06:01:09;;;;;;;;;;;;;;;3.29;72.36;97317.09;7385532;19;19922;-74
2023/02/25 06:03:36;;;;;;;;;;;;;;;3.23;72.22;97319.41;7391427;19;20021;-74
2023/02/25 06:06:03;;;;;;;;;;;;;;;3.22;72.52;97323.84;7392785;19;20461;-74
2023/02/25 06:08:30;;;;;;;;;;;;;;;3.17;71.61;97323.41;7392060;19;19986;-74
2023/02/25 06:10:59;;;;;;;;;;;;;;;3.30;71.80;97323.16;7393819;19;19922;-73
2023/02/25 06:13:28;;;;;;;;;;;;;;;3.33;71.79;97325.50;7383837;19;19914;-74
2023/02/25 06:15:55;;;;;;;;;;;;;;;3.30;72.17;97323.16;7391044;19;19910;-74
2023/02/25 06:18:21;;;;;;;;;;;;;;;3.11;71.02;97323.97;7394260;19;19933;-74
2023/02/25 06:20:48;;;;;;;;;;;;;;;3.25;71.82;97320.94;7391198;19;19929;-74
2023/02/25 06:23:15;;;;;;;;;;;;;;;3.18;70.59;97319.81;7378248;19;19918;-74
2023/02/25 06:25:41;;;;;;;;;;;;;;;3.32;71.72;97336.06;7386948;19;20442;-74
2023/02/25 06:28:08;;;;;;;;;;;;;;;3.30;72.47;97333.59;7385394;19;19958;-73
2023/02/25 06:30:34;;;;;;;;;;;;;;;3.33;72.38;97342.97;7387858;19;19936;-74
2023/02/25 06:33:01;;;;;;;;;;;;;;;3.29;72.25;97339.78;7389413;19;19994;-74
2023/02/25 06:35:27;;;;;;;;;;;;;;;3.27;71.43;97341.72;7384970;19;19926;-74
2023/02/25 06:37:55;;;;;;;;;;;;;;;3.21;72.08;97344.88;7390491;19;20284;-74
2023/02/25 06:40:21;;;;;;;;;;;;;;;3.27;72.12;97345.16;7386720;19;20240;-73
2023/02/25 06:42:48;;;;;;;;;;;;;;;3.28;73.68;97345.97;7386409;19;19930;-74
2023/02/25 06:45:14;;;;;;;;;;;;;;;3.20;73.20;97340.59;7382978;19;19923;-73
2023/02/25 06:47:41;;;;;;;;;;;;;;;3.12;72.80;97335.22;7392212;19;19928;-73
2023/02/25 06:50:08;;;;;;;;;;;;;;;3.28;74.34;97340.75;7387740;19;19925;-73
2023/02/25 06:52:34;;;;;;;;;;;;;;;3.20;74.13;97338.81;7387643;19;20282;-74
2023/02/25 06:55:01;;;;;;;;;;;;;;;3.23;74.16;97337.72;7392278;19;20347;-74
2023/02/25 06:57:27;;;;;;;;;;;;;;;3.22;74.72;97341.31;7395265;19;19922;-74
2023/02/25 06:59:54;;;;;;;;;;;;;;;3.33;73.88;97348.19;7389202;19;20353;-74
2023/02/25 07:02:21;;;;;;;;;;;;;;;3.27;73.17;97355.63;7392338;19;20299;-74
2023/02/25 07:04:47;;;;;;;;;;;;;;;3.35;73.39;97357.56;7391149;19;19941;-73
2023/02/25 07:07:14;;;;;;;;;;;;;;;3.28;73.52;97356.44;7386524;19;19981;-74
2023/02/25 07:09:41;;;;;;;;;;;;;;;3.30;72.73;97363.19;7394140;19;20286;-74
2023/02/25 07:12:07;;;;;;;;;;;;;;;3.39;73.11;97358.94;7383499;19;19914;-74
2023/02/25 07:14:34;;;;;;;;;;;;;;;3.26;72.52;97359.19;7384471;19;20260;-74
2023/02/25 07:17:01;;;;;;;;;;;;;;;3.42;72.76;97349.97;7385826;19;20291;-74
2023/02/25 07:19:28;;;;;;;;;;;;;;;3.39;72.83;97358.94;7386723;19;19922;-74
2023/02/25 07:21:55;;;;;;;;;;;;;;;3.39;72.02;97364.16;7391985;19;19919;-74
2023/02/25 07:24:22;;;;;;;;;;;;;;;3.46;72.17;97369.69;7390312;19;20252;-74
2023/02/25 07:26:48;;;;;;;;;;;;;;;3.50;71.72;97369.28;7391605;19;19930;-74
2023/02/25 07:29:15;;;;;;;;;;;;;;;3.60;71.28;97371.06;7390093;19;19919;-74
2023/02/25 07:31:41;;;;;;;;;;;;;;;3.45;70.75;97381.94;7383746;19;19922;-74
2023/02/25 07:34:10;;;;;;;;;;;;;;;3.65;72.14;97379.31;7382325;19;19923;-74
2023/02/25 07:36:36;;;;;;;;;;;;;;;3.51;70.14;97375.34;7374599;19;19922;-74
2023/02/25 07:39:05;;;;;;;;;;;;;;;3.36;70.86;97382.72;7385772;19;20258;-74
2023/02/25 07:41:31;;;;;;;;;;;;;;;3.44;71.03;97385.50;7389398;19;19922;-74
2023/02/25 07:44:01;;;;;;;;;;;;;;;3.38;71.78;97383.44;7372983;19;19922;-74
2023/02/25 07:46:28;;;;;;;;;;;;;;;3.56;72.94;97382.78;7383019;19;19932;-74
2023/02/25 07:48:55;;;;;;;;;;;;;;;3.48;72.13;97384.28;7378317;19;19914;-74
2023/02/25 07:51:22;;;;;;;;;;;;;;;3.38;72.16;97383.44;7389326;19;20432;-74
2023/02/25 07:53:51;;;;;;;;;;;;;;;3.44;71.46;97380.25;7383753;19;19929;-74
2023/02/25 07:56:18;;;;;;;;;;;;;;;3.43;72.14;97370.78;7391913;19;20409;-74
2023/02/25 07:58:44;;;;;;;;;;;;;;;3.59;72.13;97374.66;7392389;19;19925;-74
2023/02/25 08:01:13;;;;;;;;;;;;;;;3.62;71.49;97369.97;7386486;19;19930;-74
2023/02/25 08:03:40;;;;;;;;;;;;;;;3.71;71.47;97368.31;7382554;19;19926;-73
2023/02/25 08:06:07;;;;;;;;;;;;;;;3.80;70.78;97367.50;7384212;19;19923;-74
2023/02/25 08:08:34;;;;;;;;;;;;;;;3.82;71.11;97368.19;7389863;19;19914;-74
2023/02/25 08:11:07;;;;;;;;;;;;;;;3.91;71.01;97369.16;7387851;19;19937;-74
2023/02/25 08:13:34;;;;;;;;;;;;;;;3.91;71.26;97364.72;7388499;19;19923;-74
2023/02/25 08:16:04;;;;;;;;;;;;;;;4.06;70.27;97356.47;7384731;19;19926;-74
2023/02/25 08:18:31;;;;;;;;;;;;;;;4.19;69.79;97362.25;7390964;19;20668;-73
2023/02/25 08:20:57;;;;;;;;;;;;;;;4.28;71.20;97357.94;7387541;19;19921;-74
2023/02/25 08:23:26;;;;;;;;;;;;;;;4.33;69.02;97366.19;7386978;19;19914;-73
2023/02/25 08:25:54;;;;;;;;;;;;;;;4.32;67.92;97368.00;7391396;19;19919;-73
2023/02/25 08:28:21;;;;;;;;;;;;;;;4.26;68.41;97370.34;7388914;19;20226;-74
2023/02/25 08:30:48;;;;;;;;;;;;;;;4.42;69.52;97375.00;7388533;19;20358;-74
2023/02/25 08:33:15;;;;;;;;;;;;;;;4.29;66.98;97372.66;7384686;19;19922;-74
2023/02/25 08:35:41;;;;;;;;;;;;;;;4.44;69.13;97373.88;7390372;19;19929;-73
2023/02/25 08:38:08;;;;;;;;;;;;;;;4.44;67.36;97366.03;7388716;19;19915;-74
2023/02/25 08:40:35;;;;;;;;;;;;;;;4.59;68.60;97367.22;7384953;19;19926;-74
2023/02/25 08:43:01;;;;;;;;;;;;;;;4.54;67.05;97360.78;7387424;19;20395;-74
2023/02/25 08:45:28;;;;;;;;;;;;;;;4.79;67.68;97357.50;7383421;19;19926;-74
2023/02/25 08:47:55;;;;;;;;;;;;;;;4.61;67.32;97369.72;7388561;19;19945;-74
2023/02/25 08:50:22;;;;;;;;;;;;;;;4.46;64.70;97366.72;7387798;19;20014;-74
2023/02/25 08:52:49;;;;;;;;;;;;;;;4.60;65.96;97374.09;7386505;19;20256;-74
2023/02/25 08:55:17;;;;;;;;;;;;;;;4.49;64.72;97371.66;7388490;19;20288;-73
2023/02/25 08:57:43;;;;;;;;;;;;;;;4.40;63.89;97368.13;7391620;19;19918;-74
2023/02/25 09:00:11;;;;;;;;;;;;;;;4.52;65.04;97378.41;7388258;19;20258;-74
2023/02/25 09:02:37;;;;;;;;;;;;;;;4.54;64.46;97371.25;7389622;19;20335;-74
2023/02/25 09:05:04;;;;;;;;;;;;;;;4.57;64.47;97381.44;7393249;19;20255;-74
2023/02/25 09:07:31;;;;;;;;;;;;;;;4.47;64.07;97370.16;7396475;19;20287;-74
2023/02/25 09:09:57;;;;;;;;;;;;;;;4.71;63.41;97373.09;7397271;19;19922;-74
2023/02/25 09:12:24;;;;;;;;;;;;;;;4.50;64.30;97367.25;7393384;19;20349;-74
2023/02/25 09:14:51;;;;;;;;;;;;;;;4.74;63.21;97370.22;7395073;19;19919;-73
2023/02/25 09:17:17;;;;;;;;;;;;;;;4.95;63.42;97366.53;7393533;19;19946;-73
2023/02/25 09:19:44;;;;;;;;;;;;;;;5.17;64.85;97363.53;7398493;19;19948;-73
2023/02/25 09:22:10;;;;;;;;;;;;;;;5.15;63.02;97370.72;7389982;19;19930;-74
2023/02/25 09:24:37;;;;;;;;;;;;;;;4.98;62.99;97361.03;7395780;19;19918;-73
2023/02/25 09:27:06;;;;;;;;;;;;;;;5.04;63.94;97365.66;7392592;19;19926;-74
2023/02/25 09:29:37;;;;;;;;;;;;;;;4.94;63.48;97362.28;7391859;19;20365;-73
2023/02/25 09:32:04;;;;;;;;;;;;;;;5.05;61.89;97364.69;7391683;19;20066;-73
2023/02/25 09:34:32;;;;;;;;;;;;;;;5.32;63.63;97363.03;7389605;19;20346;-74
2023/02/25 09:37:02;;;;;;;;;;;;;;;5.84;61.96;97365.84;7394921;19;20278;-74
2023/02/25 09:39:29;;;;;;;;;;;;;;;6.32;60.68;97348.88;7393760;19;20351;-74
2023/02/25 09:42:21;;;;;;;;;;;;;;;6.74;61.45;97350.72;7393479;19;19950;-74
2023/02/25 09:44:49;;;;;;;;;;;;;;;6.52;57.63;97352.09;7391114;19;19911;-72
2023/02/25 09:47:18;;;;;;;;;;;;;;;6.27;58.32;97351.13;7390122;19;20235;-72
2023/02/25 09:50:05;;;;;;;;;;;;;;;6.12;58.08;97351.66;7392185;19;19961;-72
2023/02/25 09:52:31;;;;;;;;;;;;;;;6.00;57.80;97359.94;7389912;19;19922;-71
2023/02/25 09:55:02;;;;;;;;;;;;;;;5.94;56.83;97359.56;7394819;19;20255;-72
2023/02/25 09:57:30;;;;;;;;;;;;;;;5.46;56.63;97363.34;7393319;19;20504;-74
2023/02/25 09:59:59;;;;;;;;;;;;;;;5.48;59.18;97355.34;7394731;19;19919;-75
2023/02/25 10:02:29;;;;;;;;;;;;;;;5.62;57.86;97370.56;7392155;19;19942;-71
2023/02/25 10:05:01;;;;;;;;;;;;;;;5.70;56.56;97365.38;7389558;19;19956;-72
2023/02/25 10:07:32;;;;;;;;;;;;;;;5.66;54.96;97368.44;7391938;19;20253;-73
2023/02/25 10:10:02;;;;;;;;;;;;;;;5.63;56.11;97364.31;7394727;19;19934;-73
2023/02/25 10:12:44;;;;;;;;;;;;;;;5.56;54.39;97363.28;7391369;19;20309;-73
2023/02/25 10:15:14;;;;;;;;;;;;;;;5.47;54.74;97364.16;7380603;19;19918;-72
2023/02/25 10:17:59;;;;;;;;;;;;;;;5.31;55.11;97369.25;7391057;19;19978;-73
2023/02/25 10:20:29;;;;;;;;;;;;;;;5.34;56.11;97368.94;7386536;19;20521;-72
2023/02/25 10:23:01;;;;;;;;;;;;;;;5.41;56.00;97368.22;7372480;19;19922;-72
2023/02/25 10:25:29;;;;;;;;;;;;;;;5.22;55.37;97366.53;7374778;19;19933;-72
2023/02/25 10:28:00;;;;;;;;;;;;;;;5.48;56.28;97365.84;7380843;19;19914;-72
2023/02/25 10:30:30;;;;;;;;;;;;;;;5.48;55.63;97363.22;7379946;19;19910;-72
2023/02/25 10:32:57;;;;;;;;;;;;;;;5.65;56.20;97364.19;7380569;19;20564;-72
2023/02/25 10:35:27;;;;;;;;;;;;;;;5.82;55.70;97357.28;7369954;19;20335;-73
2023/02/25 10:37:54;;;;;;;;;;;;;;;5.85;55.25;97368.31;7385244;19;19994;-72
2023/02/25 10:40:23;;;;;;;;;;;;;;;5.69;55.73;97357.69;7386587;19;19929;-72
2023/02/25 10:42:53;;;;;;;;;;;;;;;5.62;56.99;97346.13;7387177;19;19926;-72
2023/02/25 10:45:23;;;;;;;;;;;;;;;5.45;55.83;97355.63;7388224;19;19942;-71
2023/02/25 10:48:10;;;;;;;;;;;;;;;5.43;57.24;97347.91;7381083;19;19978;-72
2023/02/25 10:50:38;;;;;;;;;;;;;;;5.33;56.52;97341.09;7388028;19;19934;-72
2023/02/25 10:53:15;;;;;;;;;;;;;;;5.47;57.97;97340.56;7386259;19;19915;-71
2023/02/25 10:55:42;;;;;;;;;;;;;;;5.50;57.80;97332.38;7393592;19;19926;-72
2023/02/25 10:58:20;;;;;;;;;;;;;;;5.34;57.63;97338.28;7381431;19;19919;-72
2023/02/25 11:00:52;;;;;;;;;;;;;;;5.45;57.17;97334.63;7372438;19;19921;-72
2023/02/25 11:03:20;;;;;;;;;;;;;;;5.97;55.33;97337.44;7373944;19;19914;-72
2023/02/25 11:05:47;;;;;;;;;;;;;;;6.37;53.97;97336.06;7378156;19;19946;-72
2023/02/25 11:08:27;;;;;;;;;;;;;;;6.19;54.83;97332.66;7376343;19;20009;-72
2023/02/25 11:11:01;;;;;;;;;;;;;;;6.41;54.68;97328.72;7387294;19;19939;-72
2023/02/25 11:13:29;;;;;;;;;;;;;;;6.56;52.91;97320.09;7386891;19;20279;-73
2023/02/25 11:15:56;;;;;;;;;;;;;;;6.70;55.09;97323.13;7381809;19;19922;-71
2023/02/25 11:18:26;;;;;;;;;;;;;;;6.38;54.19;97314.91;7377645;19;19953;-72
2023/02/25 11:20:54;;;;;;;;;;;;;;;6.17;55.29;97322.31;7373794;19;20516;-71
2023/02/25 11:23:22;;;;;;;;;;;;;;;5.99;56.38;97324.16;7377268;19;19917;-72
2023/02/25 11:25:52;;;;;;;;;;;;;;;5.56;56.92;97323.94;7386282;19;20410;-72
2023/02/25 11:28:22;;;;;;;;;;;;;;;5.40;57.13;97324.59;7389878;19;19922;-72
2023/02/25 11:30:48;;;;;;;;;;;;;;;5.32;58.15;97315.81;7394545;19;19949;-72
2023/02/25 11:33:32;;;;;;;;;;;;;;;5.20;58.81;97328.31;7388416;19;19914;-73
2023/02/25 11:35:59;;;;;;;;;;;;;;;5.37;59.62;97327.53;7395306;19;19966;-72
2023/02/25 11:38:27;;;;;;;;;;;;;;;5.29;58.52;97324.81;7391885;19;19923;-73
2023/02/25 11:40:54;;;;;;;;;;;;;;;5.25;58.28;97324.28;7392291;19;19927;-72
2023/02/25 11:43:22;;;;;;;;;;;;;;;5.43;60.40;97333.97;7387236;19;19917;-72
2023/02/25 11:46:16;;;;;;;;;;;;;;;5.35;58.77;97333.91;7389135;19;19921;-72
2023/02/25 11:48:49;;;;;;;;;;;;;;;5.50;59.11;97335.84;7386956;19;20290;-72
2023/02/25 11:51:19;;;;;;;;;;;;;;;5.45;59.01;97338.09;7384231;19;20038;-71
2023/02/25 11:53:46;;;;;;;;;;;;;;;5.64;58.84;97334.50;7383354;19;19923;-72
2023/02/25 11:56:33;;;;;;;;;;;;;;;5.79;58.57;97332.16;7385095;19;19918;-72
2023/02/25 11:59:00;;;;;;;;;;;;;;;5.75;57.67;97322.94;7384141;19;19961;-73
2023/02/25 12:01:45;;;;;;;;;;;;;;;5.85;58.03;97323.69;7383119;19;19918;-72
2023/02/25 12:04:11;;;;;;;;;;;;;;;6.11;58.75;97313.25;7378366;19;20388;-72
2023/02/25 12:06:50;;;;;;;;;;;;;;;5.89;57.93;97311.09;7379535;19;19922;-71
2023/02/25 12:09:17;;;;;;;;;;;;;;;5.79;58.33;97313.78;7387556;19;19915;-71
2023/02/25 12:11:43;;;;;;;;;;;;;;;5.85;58.93;97317.63;7386944;19;19918;-71
2023/02/25 12:14:13;;;;;;;;;;;;;;;5.85;58.93;97312.38;7383392;19;19986;-71
2023/02/25 12:16:55;;;;;;;;;;;;;;;5.68;58.77;97320.09;7386634;19;20554;-72
2023/02/25 12:19:40;;;;;;;;;;;;;;;5.61;58.92;97315.59;7374121;19;20456;-73
2023/02/25 12:22:26;;;;;;;;;;;;;;;5.19;59.92;97319.63;7373574;19;20457;-73
2023/02/25 12:24:58;;;;;;;;;;;;;;;5.25;60.82;97326.91;7381897;19;19942;-72
2023/02/25 12:27:34;;;;;;;;;;;;;;;5.33;61.61;97323.53;7380492;19;20324;-71
2023/02/25 12:30:07;;;;;;;;;;;;;;;5.32;61.73;97331.53;7383922;19;19914;-72
2023/02/25 12:32:37;;;;;;;;;;;;;;;5.19;63.01;97347.66;7381556;19;19918;-73
2023/02/25 12:35:19;;;;;;;;;;;;;;;4.51;67.68;97340.09;7371115;19;19921;-72
2023/02/25 12:37:54;;;;;;;;;;;;;;;4.42;67.23;97340.94;7387165;19;19918;-73
2023/02/25 12:40:40;;;;;;;;;;;;;;;4.30;67.85;97342.91;7383990;19;19914;-73
2023/02/25 12:43:32;;;;;;;;;;;;;;;4.19;66.48;97341.28;7387968;19;19922;-72
2023/02/25 12:46:17;;;;;;;;;;;;;;;4.10;67.10;97337.72;7391938;19;19919;-71
2023/02/25 12:48:43;;;;;;;;;;;;;;;4.18;66.89;97337.00;7390576;19;19922;-72
2023/02/25 12:51:31;;;;;;;;;;;;;;;4.31;66.66;97331.47;7388474;19;20319;-72
2023/02/25 12:54:03;;;;;;;;;;;;;;;4.52;66.17;97329.47;7383916;19;20374;-72
2023/02/25 12:56:37;;;;;;;;;;;;;;;4.73;66.36;97323.19;7386577;19;19918;-71
2023/02/25 12:59:04;;;;;;;;;;;;;;;4.80;66.30;97317.22;7391552;19;20399;-71
2023/02/25 13:01:52;;;;;;;;;;;;;;;4.88;66.95;97319.13;7390452;19;22075;-72
2023/02/25 13:04:32;;;;;;;;;;;;;;;4.83;66.76;97303.81;7391213;19;19918;-71
2023/02/25 13:07:03;;;;;;;;;;;;;;;5.20;66.34;97305.53;7392959;19;19926;-72
2023/02/25 13:09:30;;;;;;;;;;;;;;;5.18;64.85;97307.47;7385970;19;19930;-72
2023/02/25 13:11:56;;;;;;;;;;;;;;;5.04;63.51;97303.56;7388866;19;20258;-72